sensor_id;sensor_type;location;lat;lon;timestamp;P1;durP1;ratioP1;P2;durP2;ratioP2
7707;SDS011;3896;48.758;8.888;2024-01-15T00:00:46;19.00;;;6.00;;
7707;SDS011;3896;48.758;8.888;2024-01-15T00:03:13;15.47;;;5.87;;
7707;SDS011;3896;48.758;8.888;2024-01-15T00:05:38;20.57;;;6.87;;
7707;SDS011;3896;48.758;8.888;2024-01-15T00:08:04;14.77;;;6.50;;
7707;SDS011;3896;48.758;8.888;2024-01-15T00:10:29;16.30;;;7.10;;
7707;SDS011;3896;48.758;8.888;2024-01-15T00:12:55;14.60;;;7.73;;
7707;SDS011;3896;48.758;8.888;2024-01-15T00:15:20;19.20;;;7.17;;
7707;SDS011;3896;48.758;8.888;2024-01-15T00:17:47;13.20;;;6.27;;
7707;SDS011;3896;48.758;8.888;2024-01-15T00:20:12;17.13;;;6.43;;
7707;SDS011;3896;48.758;8.888;2024-01-15T00:22:38;13.80;;;6.50;;
7707;SDS011;3896;48.758;8.888;2024-01-15T00:25:04;14.63;;;6.00;;
7707;SDS011;3896;48.758;8.888;2024-01-15T00:27:30;18.27;;;7.33;;
7707;SDS011;3896;48.758;8.888;2024-01-15T00:29:55;14.40;;;6.00;;
7707;SDS011;3896;48.758;8.888;2024-01-15T00:32:21;11.67;;;6.13;;
7707;SDS011;3896;48.758;8.888;2024-01-15T00:34:46;12.90;;;5.73;;
7707;SDS011;3896;48.758;8.888;2024-01-15T00:37:12;12.73;;;6.77;;
7707;SDS011;3896;48.758;8.888;2024-01-15T00:39:38;16.33;;;6.20;;
7707;SDS011;3896;48.758;8.888;2024-01-15T00:42:04;13.00;;;5.93;;
7707;SDS011;3896;48.758;8.888;2024-01-15T00:44:29;12.80;;;6.20;;
7707;SDS011;3896;48.758;8.888;2024-01-15T00:46:55;13.83;;;5.77;;
7707;SDS011;3896;48.758;8.888;2024-01-15T00:49:20;12.07;;;6.40;;
7707;SDS011;3896;48.758;8.888;2024-01-15T00:51:46;16.23;;;6.27;;
7707;SDS011;3896;48.758;8.888;2024-01-15T00:54:12;15.30;;;6.47;;
7707;SDS011;3896;48.758;8.888;2024-01-15T00:56:38;11.93;;;4.70;;
7707;SDS011;3896;48.758;8.888;2024-01-15T00:59:03;13.20;;;5.57;;
7707;SDS011;3896;48.758;8.888;2024-01-15T01:01:29;12.20;;;5.90;;
7707;SDS011;3896;48.758;8.888;2024-01-15T01:03:54;10.77;;;6.33;;
7707;SDS011;3896;48.758;8.888;2024-01-15T01:06:20;15.27;;;5.53;;
7707;SDS011;3896;48.758;8.888;2024-01-15T01:08:45;10.17;;;5.23;;
7707;SDS011;3896;48.758;8.888;2024-01-15T01:11:14;15.00;;;7.17;;
7707;SDS011;3896;48.758;8.888;2024-01-15T01:13:40;11.10;;;5.63;;
7707;SDS011;3896;48.758;8.888;2024-01-15T01:16:06;12.40;;;5.83;;
7707;SDS011;3896;48.758;8.888;2024-01-15T01:18:32;12.50;;;6.50;;
7707;SDS011;3896;48.758;8.888;2024-01-15T01:20:57;17.93;;;7.03;;
7707;SDS011;3896;48.758;8.888;2024-01-15T01:23:23;11.03;;;5.27;;
7707;SDS011;3896;48.758;8.888;2024-01-15T01:25:48;11.77;;;5.70;;
7707;SDS011;3896;48.758;8.888;2024-01-15T01:28:14;11.93;;;4.90;;
7707;SDS011;3896;48.758;8.888;2024-01-15T01:30:39;13.27;;;5.57;;
7707;SDS011;3896;48.758;8.888;2024-01-15T01:33:05;15.40;;;6.13;;
7707;SDS011;3896;48.758;8.888;2024-01-15T01:35:30;15.57;;;6.60;;
7707;SDS011;3896;48.758;8.888;2024-01-15T01:37:56;15.27;;;6.00;;
7707;SDS011;3896;48.758;8.888;2024-01-15T01:40:21;13.83;;;6.03;;
7707;SDS011;3896;48.758;8.888;2024-01-15T01:42:47;12.50;;;5.47;;
7707;SDS011;3896;48.758;8.888;2024-01-15T01:45:13;10.10;;;5.47;;
7707;SDS011;3896;48.758;8.888;2024-01-15T01:47:39;13.97;;;5.27;;
7707;SDS011;3896;48.758;8.888;2024-01-15T01:50:05;16.33;;;6.57;;
7707;SDS011;3896;48.758;8.888;2024-01-15T01:52:31;18.53;;;5.93;;
7707;SDS011;3896;48.758;8.888;2024-01-15T01:54:58;15.77;;;5.80;;
7707;SDS011;3896;48.758;8.888;2024-01-15T01:57:25;11.80;;;5.73;;
7707;SDS011;3896;48.758;8.888;2024-01-15T01:59:51;16.83;;;5.57;;
7707;SDS011;3896;48.758;8.888;2024-01-15T02:02:16;12.80;;;5.73;;
7707;SDS011;3896;48.758;8.888;2024-01-15T02:04:43;11.40;;;5.67;;
7707;SDS011;3896;48.758;8.888;2024-01-15T02:07:09;16.30;;;6.23;;
7707;SDS011;3896;48.758;8.888;2024-01-15T02:09:35;13.00;;;5.80;;
7707;SDS011;3896;48.758;8.888;2024-01-15T02:12:00;12.87;;;5.23;;
7707;SDS011;3896;48.758;8.888;2024-01-15T02:14:26;10.40;;;6.00;;
7707;SDS011;3896;48.758;8.888;2024-01-15T02:16:52;15.87;;;6.00;;
7707;SDS011;3896;48.758;8.888;2024-01-15T02:19:17;11.43;;;5.63;;
7707;SDS011;3896;48.758;8.888;2024-01-15T02:21:43;14.13;;;5.80;;
7707;SDS011;3896;48.758;8.888;2024-01-15T02:24:09;10.37;;;5.30;;
7707;SDS011;3896;48.758;8.888;2024-01-15T02:26:35;13.20;;;6.13;;
7707;SDS011;3896;48.758;8.888;2024-01-15T02:29:02;27.43;;;11.33;;
7707;SDS011;3896;48.758;8.888;2024-01-15T02:31:28;14.47;;;6.53;;
7707;SDS011;3896;48.758;8.888;2024-01-15T02:33:53;17.07;;;6.07;;
7707;SDS011;3896;48.758;8.888;2024-01-15T02:36:19;13.70;;;5.43;;
7707;SDS011;3896;48.758;8.888;2024-01-15T02:38:44;13.37;;;5.90;;
7707;SDS011;3896;48.758;8.888;2024-01-15T02:41:10;14.93;;;6.03;;
7707;SDS011;3896;48.758;8.888;2024-01-15T02:59:41;9.70;;;4.60;;
7707;SDS011;3896;48.758;8.888;2024-01-15T03:02:07;11.67;;;5.63;;
7707;SDS011;3896;48.758;8.888;2024-01-15T03:04:32;12.77;;;5.20;;
7707;SDS011;3896;48.758;8.888;2024-01-15T03:06:58;17.30;;;6.23;;
7707;SDS011;3896;48.758;8.888;2024-01-15T03:11:53;9.43;;;4.70;;
7707;SDS011;3896;48.758;8.888;2024-01-15T03:14:18;13.87;;;5.67;;
7707;SDS011;3896;48.758;8.888;2024-01-15T03:16:45;8.57;;;4.90;;
7707;SDS011;3896;48.758;8.888;2024-01-15T03:19:10;14.70;;;5.73;;
7707;SDS011;3896;48.758;8.888;2024-01-15T03:21:36;15.93;;;5.00;;
7707;SDS011;3896;48.758;8.888;2024-01-15T03:24:02;11.13;;;5.33;;
7707;SDS011;3896;48.758;8.888;2024-01-15T03:26:27;9.80;;;5.40;;
7707;SDS011;3896;48.758;8.888;2024-01-15T03:28:53;12.23;;;5.87;;
7707;SDS011;3896;48.758;8.888;2024-01-15T03:31:18;13.83;;;6.03;;
7707;SDS011;3896;48.758;8.888;2024-01-15T03:33:44;9.63;;;4.67;;
7707;SDS011;3896;48.758;8.888;2024-01-15T03:36:09;9.07;;;4.83;;
7707;SDS011;3896;48.758;8.888;2024-01-15T03:38:35;12.13;;;4.93;;
7707;SDS011;3896;48.758;8.888;2024-01-15T03:41:06;12.73;;;5.53;;
7707;SDS011;3896;48.758;8.888;2024-01-15T03:43:31;7.77;;;4.07;;
7707;SDS011;3896;48.758;8.888;2024-01-15T03:45:57;8.33;;;5.10;;
7707;SDS011;3896;48.758;8.888;2024-01-15T03:48:22;9.20;;;4.07;;
7707;SDS011;3896;48.758;8.888;2024-01-15T03:50:48;11.30;;;5.07;;
7707;SDS011;3896;48.758;8.888;2024-01-15T03:53:13;9.10;;;4.93;;
7707;SDS011;3896;48.758;8.888;2024-01-15T03:55:39;9.07;;;4.67;;
7707;SDS011;3896;48.758;8.888;2024-01-15T03:58:05;8.57;;;4.97;;
7707;SDS011;3896;48.758;8.888;2024-01-15T04:00:30;10.30;;;4.80;;
7707;SDS011;3896;48.758;8.888;2024-01-15T04:02:56;13.53;;;6.13;;
7707;SDS011;3896;48.758;8.888;2024-01-15T04:05:21;12.43;;;5.90;;
7707;SDS011;3896;48.758;8.888;2024-01-15T04:07:47;8.20;;;4.17;;
7707;SDS011;3896;48.758;8.888;2024-01-15T04:10:13;9.53;;;4.80;;
7707;SDS011;3896;48.758;8.888;2024-01-15T04:12:39;12.47;;;5.23;;
7707;SDS011;3896;48.758;8.888;2024-01-15T04:15:04;13.13;;;5.87;;
7707;SDS011;3896;48.758;8.888;2024-01-15T04:17:30;11.03;;;5.53;;
7707;SDS011;3896;48.758;8.888;2024-01-15T04:19:56;11.30;;;5.50;;
7707;SDS011;3896;48.758;8.888;2024-01-15T04:22:21;8.10;;;4.87;;
7707;SDS011;3896;48.758;8.888;2024-01-15T04:24:47;10.77;;;5.80;;
7707;SDS011;3896;48.758;8.888;2024-01-15T04:27:13;13.53;;;5.57;;
7707;SDS011;3896;48.758;8.888;2024-01-15T04:29:39;8.70;;;4.97;;
7707;SDS011;3896;48.758;8.888;2024-01-15T04:32:06;10.80;;;5.10;;
7707;SDS011;3896;48.758;8.888;2024-01-15T04:34:32;13.40;;;5.33;;
7707;SDS011;3896;48.758;8.888;2024-01-15T04:36:57;12.27;;;6.30;;
7707;SDS011;3896;48.758;8.888;2024-01-15T04:39:23;11.20;;;5.43;;
7707;SDS011;3896;48.758;8.888;2024-01-15T04:41:48;13.60;;;6.00;;
7707;SDS011;3896;48.758;8.888;2024-01-15T04:44:14;11.73;;;6.10;;
7707;SDS011;3896;48.758;8.888;2024-01-15T04:46:40;12.50;;;5.73;;
7707;SDS011;3896;48.758;8.888;2024-01-15T04:49:05;9.93;;;5.30;;
7707;SDS011;3896;48.758;8.888;2024-01-15T04:51:31;17.20;;;6.73;;
7707;SDS011;3896;48.758;8.888;2024-01-15T04:53:56;13.90;;;5.63;;
7707;SDS011;3896;48.758;8.888;2024-01-15T04:56:22;11.63;;;5.63;;
7707;SDS011;3896;48.758;8.888;2024-01-15T04:58:47;8.67;;;4.43;;
7707;SDS011;3896;48.758;8.888;2024-01-15T05:01:13;12.53;;;5.93;;
7707;SDS011;3896;48.758;8.888;2024-01-15T05:03:41;12.10;;;5.47;;
7707;SDS011;3896;48.758;8.888;2024-01-15T05:06:06;10.83;;;5.07;;
7707;SDS011;3896;48.758;8.888;2024-01-15T05:08:32;11.53;;;4.80;;
7707;SDS011;3896;48.758;8.888;2024-01-15T05:10:57;10.70;;;4.97;;
7707;SDS011;3896;48.758;8.888;2024-01-15T05:13:23;10.40;;;4.97;;
7707;SDS011;3896;48.758;8.888;2024-01-15T05:15:48;9.23;;;5.33;;
7707;SDS011;3896;48.758;8.888;2024-01-15T05:18:14;10.37;;;4.67;;
7707;SDS011;3896;48.758;8.888;2024-01-15T05:20:40;9.40;;;4.40;;
7707;SDS011;3896;48.758;8.888;2024-01-15T05:23:05;12.77;;;4.63;;
7707;SDS011;3896;48.758;8.888;2024-01-15T05:25:31;11.53;;;5.47;;
7707;SDS011;3896;48.758;8.888;2024-01-15T05:27:57;10.30;;;6.03;;
7707;SDS011;3896;48.758;8.888;2024-01-15T05:30:22;11.00;;;5.97;;
7707;SDS011;3896;48.758;8.888;2024-01-15T05:32:48;9.17;;;5.13;;
7707;SDS011;3896;48.758;8.888;2024-01-15T05:35:13;8.80;;;4.97;;
7707;SDS011;3896;48.758;8.888;2024-01-15T05:37:42;8.43;;;5.30;;
7707;SDS011;3896;48.758;8.888;2024-01-15T05:40:13;8.97;;;5.03;;
7707;SDS011;3896;48.758;8.888;2024-01-15T05:42:39;6.00;;;3.63;;
7707;SDS011;3896;48.758;8.888;2024-01-15T05:45:05;13.10;;;5.20;;
7707;SDS011;3896;48.758;8.888;2024-01-15T05:47:31;9.23;;;5.40;;
7707;SDS011;3896;48.758;8.888;2024-01-15T05:49:57;10.87;;;5.20;;
7707;SDS011;3896;48.758;8.888;2024-01-15T05:52:23;13.47;;;7.00;;
7707;SDS011;3896;48.758;8.888;2024-01-15T05:54:51;14.67;;;5.43;;
7707;SDS011;3896;48.758;8.888;2024-01-15T05:57:17;9.03;;;4.73;;
7707;SDS011;3896;48.758;8.888;2024-01-15T05:59:44;13.80;;;5.03;;
7707;SDS011;3896;48.758;8.888;2024-01-15T06:02:10;10.30;;;4.70;;
7707;SDS011;3896;48.758;8.888;2024-01-15T06:04:35;7.47;;;4.37;;
7707;SDS011;3896;48.758;8.888;2024-01-15T06:07:01;13.93;;;5.27;;
7707;SDS011;3896;48.758;8.888;2024-01-15T06:09:27;12.83;;;5.60;;
7707;SDS011;3896;48.758;8.888;2024-01-15T06:11:53;10.03;;;5.03;;
7707;SDS011;3896;48.758;8.888;2024-01-15T06:14:18;9.70;;;5.33;;
7707;SDS011;3896;48.758;8.888;2024-01-15T06:16:44;8.07;;;4.63;;
7707;SDS011;3896;48.758;8.888;2024-01-15T06:19:10;8.30;;;4.80;;
7707;SDS011;3896;48.758;8.888;2024-01-15T06:21:35;8.80;;;5.00;;
7707;SDS011;3896;48.758;8.888;2024-01-15T06:24:01;9.10;;;4.33;;
7707;SDS011;3896;48.758;8.888;2024-01-15T06:26:26;10.57;;;4.87;;
7707;SDS011;3896;48.758;8.888;2024-01-15T06:28:52;8.00;;;4.27;;
7707;SDS011;3896;48.758;8.888;2024-01-15T06:31:18;8.87;;;4.90;;
7707;SDS011;3896;48.758;8.888;2024-01-15T06:33:43;7.40;;;3.93;;
7707;SDS011;3896;48.758;8.888;2024-01-15T06:36:12;7.53;;;4.07;;
7707;SDS011;3896;48.758;8.888;2024-01-15T06:38:37;13.67;;;5.07;;
7707;SDS011;3896;48.758;8.888;2024-01-15T06:41:03;8.40;;;4.60;;
7707;SDS011;3896;48.758;8.888;2024-01-15T06:43:28;9.53;;;4.57;;
7707;SDS011;3896;48.758;8.888;2024-01-15T06:45:54;8.37;;;4.07;;
7707;SDS011;3896;48.758;8.888;2024-01-15T06:48:19;8.10;;;3.73;;
7707;SDS011;3896;48.758;8.888;2024-01-15T06:50:45;5.20;;;3.87;;
7707;SDS011;3896;48.758;8.888;2024-01-15T06:53:11;8.30;;;3.87;;
7707;SDS011;3896;48.758;8.888;2024-01-15T06:55:37;8.00;;;4.57;;
7707;SDS011;3896;48.758;8.888;2024-01-15T06:58:03;8.83;;;4.43;;
7707;SDS011;3896;48.758;8.888;2024-01-15T07:00:29;6.10;;;4.00;;
7707;SDS011;3896;48.758;8.888;2024-01-15T07:02:54;6.87;;;4.30;;
7707;SDS011;3896;48.758;8.888;2024-01-15T07:05:20;9.93;;;5.57;;
7707;SDS011;3896;48.758;8.888;2024-01-15T07:07:46;6.17;;;3.80;;
7707;SDS011;3896;48.758;8.888;2024-01-15T07:10:12;7.60;;;4.13;;
7707;SDS011;3896;48.758;8.888;2024-01-15T07:12:38;8.17;;;4.07;;
7707;SDS011;3896;48.758;8.888;2024-01-15T07:15:04;10.10;;;4.17;;
7707;SDS011;3896;48.758;8.888;2024-01-15T07:17:32;9.57;;;4.93;;
7707;SDS011;3896;48.758;8.888;2024-01-15T07:19:57;10.00;;;4.50;;
7707;SDS011;3896;48.758;8.888;2024-01-15T07:22:23;12.20;;;3.90;;
7707;SDS011;3896;48.758;8.888;2024-01-15T07:24:48;9.77;;;4.33;;
7707;SDS011;3896;48.758;8.888;2024-01-15T07:27:14;8.63;;;4.63;;
7707;SDS011;3896;48.758;8.888;2024-01-15T07:29:39;8.50;;;3.90;;
7707;SDS011;3896;48.758;8.888;2024-01-15T07:32:05;6.47;;;3.87;;
7707;SDS011;3896;48.758;8.888;2024-01-15T07:34:32;9.10;;;3.83;;
7707;SDS011;3896;48.758;8.888;2024-01-15T07:36:58;8.53;;;4.90;;
7707;SDS011;3896;48.758;8.888;2024-01-15T07:39:23;7.50;;;3.60;;
7707;SDS011;3896;48.758;8.888;2024-01-15T07:41:50;4.03;;;2.67;;
7707;SDS011;3896;48.758;8.888;2024-01-15T07:44:16;9.33;;;4.57;;
7707;SDS011;3896;48.758;8.888;2024-01-15T07:46:45;6.47;;;3.60;;
7707;SDS011;3896;48.758;8.888;2024-01-15T07:49:11;10.67;;;5.30;;
7707;SDS011;3896;48.758;8.888;2024-01-15T07:51:38;8.13;;;3.87;;
7707;SDS011;3896;48.758;8.888;2024-01-15T07:54:05;7.07;;;3.90;;
7707;SDS011;3896;48.758;8.888;2024-01-15T07:56:31;10.47;;;4.30;;
7707;SDS011;3896;48.758;8.888;2024-01-15T07:58:57;11.93;;;6.20;;
7707;SDS011;3896;48.758;8.888;2024-01-15T08:01:23;14.97;;;6.10;;
7707;SDS011;3896;48.758;8.888;2024-01-15T08:03:48;10.10;;;5.40;;
7707;SDS011;3896;48.758;8.888;2024-01-15T08:06:14;8.27;;;3.90;;
7707;SDS011;3896;48.758;8.888;2024-01-15T08:08:40;9.57;;;4.60;;
7707;SDS011;3896;48.758;8.888;2024-01-15T08:11:05;8.37;;;5.27;;
7707;SDS011;3896;48.758;8.888;2024-01-15T08:13:31;9.17;;;3.80;;
7707;SDS011;3896;48.758;8.888;2024-01-15T08:15:56;7.43;;;4.03;;
7707;SDS011;3896;48.758;8.888;2024-01-15T08:18:22;6.30;;;3.90;;
7707;SDS011;3896;48.758;8.888;2024-01-15T08:20:48;10.33;;;4.10;;
7707;SDS011;3896;48.758;8.888;2024-01-15T08:23:13;7.50;;;4.60;;
7707;SDS011;3896;48.758;8.888;2024-01-15T08:25:39;5.90;;;3.73;;
7707;SDS011;3896;48.758;8.888;2024-01-15T08:28:04;3.90;;;2.63;;
7707;SDS011;3896;48.758;8.888;2024-01-15T08:30:30;6.07;;;4.03;;
7707;SDS011;3896;48.758;8.888;2024-01-15T08:32:56;4.80;;;3.37;;
7707;SDS011;3896;48.758;8.888;2024-01-15T08:35:22;4.87;;;3.17;;
7707;SDS011;3896;48.758;8.888;2024-01-15T08:37:54;5.27;;;3.60;;
7707;SDS011;3896;48.758;8.888;2024-01-15T08:40:19;2.90;;;2.70;;
7707;SDS011;3896;48.758;8.888;2024-01-15T08:42:45;7.93;;;2.93;;
7707;SDS011;3896;48.758;8.888;2024-01-15T08:45:11;4.57;;;3.47;;
7707;SDS011;3896;48.758;8.888;2024-01-15T08:47:37;8.90;;;3.80;;
7707;SDS011;3896;48.758;8.888;2024-01-15T08:50:03;5.43;;;3.60;;
7707;SDS011;3896;48.758;8.888;2024-01-15T08:52:29;7.77;;;3.33;;
7707;SDS011;3896;48.758;8.888;2024-01-15T08:54:57;5.63;;;2.93;;
7707;SDS011;3896;48.758;8.888;2024-01-15T08:57:25;6.00;;;3.83;;
7707;SDS011;3896;48.758;8.888;2024-01-15T08:59:51;6.40;;;3.23;;
7707;SDS011;3896;48.758;8.888;2024-01-15T09:02:16;5.43;;;2.63;;
7707;SDS011;3896;48.758;8.888;2024-01-15T09:04:42;5.60;;;2.87;;
7707;SDS011;3896;48.758;8.888;2024-01-15T09:07:07;6.63;;;2.90;;
7707;SDS011;3896;48.758;8.888;2024-01-15T09:09:33;6.00;;;3.13;;
7707;SDS011;3896;48.758;8.888;2024-01-15T09:11:59;7.40;;;2.77;;
7707;SDS011;3896;48.758;8.888;2024-01-15T09:14:25;4.37;;;2.37;;
7707;SDS011;3896;48.758;8.888;2024-01-15T09:16:52;5.67;;;2.90;;
7707;SDS011;3896;48.758;8.888;2024-01-15T09:19:18;6.33;;;2.90;;
7707;SDS011;3896;48.758;8.888;2024-01-15T09:21:44;5.43;;;3.67;;
7707;SDS011;3896;48.758;8.888;2024-01-15T09:24:10;4.30;;;2.70;;
7707;SDS011;3896;48.758;8.888;2024-01-15T09:26:36;7.67;;;3.87;;
7707;SDS011;3896;48.758;8.888;2024-01-15T09:29:01;7.53;;;4.07;;
7707;SDS011;3896;48.758;8.888;2024-01-15T09:31:27;6.97;;;3.50;;
7707;SDS011;3896;48.758;8.888;2024-01-15T09:33:53;8.80;;;4.60;;
7707;SDS011;3896;48.758;8.888;2024-01-15T09:36:21;6.20;;;3.37;;
7707;SDS011;3896;48.758;8.888;2024-01-15T09:38:47;5.30;;;3.50;;
7707;SDS011;3896;48.758;8.888;2024-01-15T09:41:13;5.97;;;3.67;;
7707;SDS011;3896;48.758;8.888;2024-01-15T09:43:39;7.90;;;3.70;;
7707;SDS011;3896;48.758;8.888;2024-01-15T09:46:05;5.67;;;2.97;;
7707;SDS011;3896;48.758;8.888;2024-01-15T09:48:31;5.60;;;4.00;;
7707;SDS011;3896;48.758;8.888;2024-01-15T09:50:59;7.43;;;3.70;;
7707;SDS011;3896;48.758;8.888;2024-01-15T09:53:29;6.63;;;3.13;;
7707;SDS011;3896;48.758;8.888;2024-01-15T09:55:57;3.63;;;2.93;;
7707;SDS011;3896;48.758;8.888;2024-01-15T09:58:23;6.57;;;3.03;;
7707;SDS011;3896;48.758;8.888;2024-01-15T10:00:49;5.00;;;2.63;;
7707;SDS011;3896;48.758;8.888;2024-01-15T10:03:16;4.17;;;3.17;;
7707;SDS011;3896;48.758;8.888;2024-01-15T10:05:43;4.70;;;3.00;;
7707;SDS011;3896;48.758;8.888;2024-01-15T10:08:08;9.50;;;3.70;;
7707;SDS011;3896;48.758;8.888;2024-01-15T10:10:35;5.93;;;3.83;;
7707;SDS011;3896;48.758;8.888;2024-01-15T10:13:03;4.37;;;2.80;;
7707;SDS011;3896;48.758;8.888;2024-01-15T10:15:29;3.80;;;2.73;;
7707;SDS011;3896;48.758;8.888;2024-01-15T10:18:01;4.30;;;2.70;;
7707;SDS011;3896;48.758;8.888;2024-01-15T10:20:27;4.03;;;3.13;;
7707;SDS011;3896;48.758;8.888;2024-01-15T10:22:53;4.40;;;2.90;;
7707;SDS011;3896;48.758;8.888;2024-01-15T10:25:18;7.60;;;3.40;;
7707;SDS011;3896;48.758;8.888;2024-01-15T10:27:58;3.27;;;2.93;;
7707;SDS011;3896;48.758;8.888;2024-01-15T10:30:25;4.23;;;2.90;;
7707;SDS011;3896;48.758;8.888;2024-01-15T10:32:57;5.50;;;3.13;;
7707;SDS011;3896;48.758;8.888;2024-01-15T10:35:26;5.60;;;3.40;;
7707;SDS011;3896;48.758;8.888;2024-01-15T10:38:01;6.93;;;2.93;;
7707;SDS011;3896;48.758;8.888;2024-01-15T10:40:27;5.07;;;3.57;;
7707;SDS011;3896;48.758;8.888;2024-01-15T10:42:53;4.77;;;3.13;;
7707;SDS011;3896;48.758;8.888;2024-01-15T10:45:19;5.43;;;2.80;;
7707;SDS011;3896;48.758;8.888;2024-01-15T10:47:45;7.17;;;3.07;;
7707;SDS011;3896;48.758;8.888;2024-01-15T10:50:11;4.97;;;3.10;;
7707;SDS011;3896;48.758;8.888;2024-01-15T10:52:37;6.50;;;3.00;;
7707;SDS011;3896;48.758;8.888;2024-01-15T10:55:05;6.20;;;2.50;;
7707;SDS011;3896;48.758;8.888;2024-01-15T10:57:33;5.50;;;3.20;;
7707;SDS011;3896;48.758;8.888;2024-01-15T11:00:03;5.93;;;3.07;;
7707;SDS011;3896;48.758;8.888;2024-01-15T11:02:30;6.63;;;2.83;;
7707;SDS011;3896;48.758;8.888;2024-01-15T11:04:58;5.13;;;3.00;;
7707;SDS011;3896;48.758;8.888;2024-01-15T11:07:24;4.20;;;2.90;;
7707;SDS011;3896;48.758;8.888;2024-01-15T11:09:50;5.73;;;3.83;;
7707;SDS011;3896;48.758;8.888;2024-01-15T11:12:16;5.67;;;2.60;;
7707;SDS011;3896;48.758;8.888;2024-01-15T11:14:48;6.33;;;3.83;;
7707;SDS011;3896;48.758;8.888;2024-01-15T11:17:15;6.67;;;3.97;;
7707;SDS011;3896;48.758;8.888;2024-01-15T11:19:44;6.37;;;3.20;;
7707;SDS011;3896;48.758;8.888;2024-01-15T11:24:56;5.40;;;3.60;;
7707;SDS011;3896;48.758;8.888;2024-01-15T11:27:42;5.90;;;3.77;;
7707;SDS011;3896;48.758;8.888;2024-01-15T11:30:17;6.63;;;3.83;;
7707;SDS011;3896;48.758;8.888;2024-01-15T11:32:45;5.00;;;3.63;;
7707;SDS011;3896;48.758;8.888;2024-01-15T11:35:12;5.37;;;3.90;;
7707;SDS011;3896;48.758;8.888;2024-01-15T11:40:58;10.13;;;3.93;;
7707;SDS011;3896;48.758;8.888;2024-01-15T11:43:07;5.47;;;3.60;;
7707;SDS011;3896;48.758;8.888;2024-01-15T11:45:34;9.30;;;4.80;;
7707;SDS011;3896;48.758;8.888;2024-01-15T11:48:06;7.87;;;3.90;;
7707;SDS011;3896;48.758;8.888;2024-01-15T11:50:36;6.77;;;3.73;;
7707;SDS011;3896;48.758;8.888;2024-01-15T11:53:06;5.10;;;3.57;;
7707;SDS011;3896;48.758;8.888;2024-01-15T11:55:39;4.37;;;2.90;;
7707;SDS011;3896;48.758;8.888;2024-01-15T11:58:10;5.83;;;3.80;;
7707;SDS011;3896;48.758;8.888;2024-01-15T12:00:39;6.40;;;3.37;;
7707;SDS011;3896;48.758;8.888;2024-01-15T12:03:06;5.57;;;3.60;;
7707;SDS011;3896;48.758;8.888;2024-01-15T12:05:32;4.80;;;2.77;;
7707;SDS011;3896;48.758;8.888;2024-01-15T12:07:57;5.57;;;3.20;;
7707;SDS011;3896;48.758;8.888;2024-01-15T12:10:23;6.07;;;3.80;;
7707;SDS011;3896;48.758;8.888;2024-01-15T12:12:54;7.90;;;3.67;;
7707;SDS011;3896;48.758;8.888;2024-01-15T12:15:22;5.73;;;3.77;;
7707;SDS011;3896;48.758;8.888;2024-01-15T12:17:49;6.10;;;3.20;;
7707;SDS011;3896;48.758;8.888;2024-01-15T12:20:15;6.23;;;3.63;;
7707;SDS011;3896;48.758;8.888;2024-01-15T12:22:42;5.00;;;3.37;;
7707;SDS011;3896;48.758;8.888;2024-01-15T12:25:08;6.30;;;4.00;;
7707;SDS011;3896;48.758;8.888;2024-01-15T12:27:34;5.57;;;2.87;;
7707;SDS011;3896;48.758;8.888;2024-01-15T12:30:00;9.10;;;3.50;;
7707;SDS011;3896;48.758;8.888;2024-01-15T12:32:25;4.13;;;3.07;;
7707;SDS011;3896;48.758;8.888;2024-01-15T12:34:51;6.40;;;3.20;;
7707;SDS011;3896;48.758;8.888;2024-01-15T12:37:19;5.73;;;3.60;;
7707;SDS011;3896;48.758;8.888;2024-01-15T12:39:46;4.30;;;3.10;;
7707;SDS011;3896;48.758;8.888;2024-01-15T12:42:13;5.33;;;3.20;;
7707;SDS011;3896;48.758;8.888;2024-01-15T12:44:40;5.60;;;3.10;;
7707;SDS011;3896;48.758;8.888;2024-01-15T12:47:06;4.87;;;2.97;;
7707;SDS011;3896;48.758;8.888;2024-01-15T12:49:31;5.57;;;3.30;;
7707;SDS011;3896;48.758;8.888;2024-01-15T12:51:57;6.33;;;2.80;;
7707;SDS011;3896;48.758;8.888;2024-01-15T12:54:24;5.17;;;2.47;;
7707;SDS011;3896;48.758;8.888;2024-01-15T12:56:50;5.00;;;3.03;;
7707;SDS011;3896;48.758;8.888;2024-01-15T12:59:17;3.40;;;2.70;;
7707;SDS011;3896;48.758;8.888;2024-01-15T13:01:43;7.70;;;3.40;;
7707;SDS011;3896;48.758;8.888;2024-01-15T13:04:10;5.10;;;3.27;;
7707;SDS011;3896;48.758;8.888;2024-01-15T13:06:36;6.20;;;3.77;;
7707;SDS011;3896;48.758;8.888;2024-01-15T13:09:02;6.17;;;3.10;;
7707;SDS011;3896;48.758;8.888;2024-01-15T13:11:31;6.43;;;3.40;;
7707;SDS011;3896;48.758;8.888;2024-01-15T13:13:57;6.67;;;3.83;;
7707;SDS011;3896;48.758;8.888;2024-01-15T13:16:22;4.30;;;3.33;;
7707;SDS011;3896;48.758;8.888;2024-01-15T13:18:48;6.83;;;4.13;;
7707;SDS011;3896;48.758;8.888;2024-01-15T13:21:14;4.63;;;3.30;;
7707;SDS011;3896;48.758;8.888;2024-01-15T13:23:40;3.80;;;3.27;;
7707;SDS011;3896;48.758;8.888;2024-01-15T13:26:06;4.60;;;2.87;;
7707;SDS011;3896;48.758;8.888;2024-01-15T13:28:32;4.87;;;3.30;;
7707;SDS011;3896;48.758;8.888;2024-01-15T13:30:59;5.17;;;3.40;;
7707;SDS011;3896;48.758;8.888;2024-01-15T13:33:25;2.27;;;2.07;;
7707;SDS011;3896;48.758;8.888;2024-01-15T13:35:50;6.60;;;2.93;;
7707;SDS011;3896;48.758;8.888;2024-01-15T13:38:16;5.30;;;2.60;;
7707;SDS011;3896;48.758;8.888;2024-01-15T13:40:41;7.87;;;2.87;;
7707;SDS011;3896;48.758;8.888;2024-01-15T13:43:09;3.60;;;3.07;;
7707;SDS011;3896;48.758;8.888;2024-01-15T13:45:36;3.37;;;2.80;;
7707;SDS011;3896;48.758;8.888;2024-01-15T13:48:02;4.63;;;2.83;;
7707;SDS011;3896;48.758;8.888;2024-01-15T13:50:30;1.90;;;1.80;;
7707;SDS011;3896;48.758;8.888;2024-01-15T13:52:56;1.50;;;1.40;;
7707;SDS011;3896;48.758;8.888;2024-01-15T13:55:22;1.60;;;1.50;;
7707;SDS011;3896;48.758;8.888;2024-01-15T13:57:48;1.20;;;1.10;;
7707;SDS011;3896;48.758;8.888;2024-01-15T14:00:13;1.40;;;1.30;;
7707;SDS011;3896;48.758;8.888;2024-01-15T14:02:43;1.93;;;1.80;;
7707;SDS011;3896;48.758;8.888;2024-01-15T14:05:09;1.67;;;1.57;;
7707;SDS011;3896;48.758;8.888;2024-01-15T14:07:37;1.87;;;1.77;;
7707;SDS011;3896;48.758;8.888;2024-01-15T14:10:04;2.47;;;2.17;;
7707;SDS011;3896;48.758;8.888;2024-01-15T14:12:30;1.70;;;1.60;;
7707;SDS011;3896;48.758;8.888;2024-01-15T14:14:56;2.53;;;2.00;;
7707;SDS011;3896;48.758;8.888;2024-01-15T14:17:22;2.53;;;1.60;;
7707;SDS011;3896;48.758;8.888;2024-01-15T14:19:47;1.80;;;1.70;;
7707;SDS011;3896;48.758;8.888;2024-01-15T14:22:13;3.67;;;2.70;;
7707;SDS011;3896;48.758;8.888;2024-01-15T14:24:38;3.30;;;2.47;;
7707;SDS011;3896;48.758;8.888;2024-01-15T14:27:04;3.97;;;2.67;;
7707;SDS011;3896;48.758;8.888;2024-01-15T14:29:30;3.90;;;2.30;;
7707;SDS011;3896;48.758;8.888;2024-01-15T14:31:56;2.03;;;1.77;;
7707;SDS011;3896;48.758;8.888;2024-01-15T14:34:21;3.77;;;2.20;;
7707;SDS011;3896;48.758;8.888;2024-01-15T14:36:50;2.07;;;1.83;;
7707;SDS011;3896;48.758;8.888;2024-01-15T14:39:15;2.53;;;2.23;;
7707;SDS011;3896;48.758;8.888;2024-01-15T14:41:41;2.83;;;2.47;;
7707;SDS011;3896;48.758;8.888;2024-01-15T14:44:07;3.80;;;2.90;;
7707;SDS011;3896;48.758;8.888;2024-01-15T14:46:33;3.53;;;2.50;;
7707;SDS011;3896;48.758;8.888;2024-01-15T14:48:58;5.43;;;2.53;;
7707;SDS011;3896;48.758;8.888;2024-01-15T14:51:24;4.03;;;3.57;;
7707;SDS011;3896;48.758;8.888;2024-01-15T14:53:49;3.57;;;3.10;;
7707;SDS011;3896;48.758;8.888;2024-01-15T14:56:16;4.53;;;3.93;;
7707;SDS011;3896;48.758;8.888;2024-01-15T14:58:41;8.37;;;4.73;;
7707;SDS011;3896;48.758;8.888;2024-01-15T15:01:07;3.87;;;3.33;;
7707;SDS011;3896;48.758;8.888;2024-01-15T15:03:33;4.67;;;3.43;;
7707;SDS011;3896;48.758;8.888;2024-01-15T15:05:59;3.87;;;3.07;;
7707;SDS011;3896;48.758;8.888;2024-01-15T15:08:24;4.87;;;3.33;;
7707;SDS011;3896;48.758;8.888;2024-01-15T15:10:50;4.67;;;3.37;;
7707;SDS011;3896;48.758;8.888;2024-01-15T15:13:15;3.10;;;2.73;;
7707;SDS011;3896;48.758;8.888;2024-01-15T15:15:41;6.67;;;3.43;;
7707;SDS011;3896;48.758;8.888;2024-01-15T15:18:06;5.80;;;4.00;;
7707;SDS011;3896;48.758;8.888;2024-01-15T15:20:32;4.33;;;3.77;;
7707;SDS011;3896;48.758;8.888;2024-01-15T15:22:57;4.70;;;3.43;;
7707;SDS011;3896;48.758;8.888;2024-01-15T15:25:23;7.10;;;4.30;;
7707;SDS011;3896;48.758;8.888;2024-01-15T15:27:49;6.00;;;3.83;;